sensor_id;sensor_type;location;lat;lon;timestamp;P1;durP1;ratioP1;P2;durP2;ratioP2
49910;SDS011;35803;53.096;5.844;2024-01-11T00:00:31;29.40;;;11.37;;
49910;SDS011;35803;53.096;5.844;2024-01-11T00:03:17;29.67;;;11.73;;
49910;SDS011;35803;53.096;5.844;2024-01-11T00:06:03;29.00;;;11.90;;
49910;SDS011;35803;53.096;5.844;2024-01-11T00:08:49;29.67;;;11.57;;
49910;SDS011;35803;53.096;5.844;2024-01-11T00:11:35;29.50;;;12.10;;
49910;SDS011;35803;53.096;5.844;2024-01-11T00:14:21;29.50;;;12.50;;
49910;SDS011;35803;53.096;5.844;2024-01-11T00:17:07;32.17;;;12.73;;
49910;SDS011;35803;53.096;5.844;2024-01-11T00:19:52;30.00;;;11.67;;
49910;SDS011;35803;53.096;5.844;2024-01-11T00:22:38;29.17;;;11.53;;
49910;SDS011;35803;53.096;5.844;2024-01-11T00:25:24;27.57;;;12.67;;
49910;SDS011;35803;53.096;5.844;2024-01-11T00:28:10;27.73;;;12.40;;
49910;SDS011;35803;53.096;5.844;2024-01-11T00:30:55;23.33;;;11.57;;
49910;SDS011;35803;53.096;5.844;2024-01-11T00:33:41;26.57;;;12.10;;
49910;SDS011;35803;53.096;5.844;2024-01-11T00:36:27;31.27;;;12.47;;
49910;SDS011;35803;53.096;5.844;2024-01-11T00:39:13;30.30;;;12.40;;
49910;SDS011;35803;53.096;5.844;2024-01-11T00:41:59;33.43;;;12.93;;
49910;SDS011;35803;53.096;5.844;2024-01-11T00:44:45;28.70;;;12.07;;
49910;SDS011;35803;53.096;5.844;2024-01-11T00:47:31;28.63;;;11.67;;
49910;SDS011;35803;53.096;5.844;2024-01-11T00:50:16;30.67;;;12.20;;
49910;SDS011;35803;53.096;5.844;2024-01-11T00:53:02;31.40;;;12.77;;
49910;SDS011;35803;53.096;5.844;2024-01-11T00:55:48;32.10;;;13.13;;
49910;SDS011;35803;53.096;5.844;2024-01-11T00:58:34;34.77;;;13.20;;
49910;SDS011;35803;53.096;5.844;2024-01-11T01:01:19;30.73;;;13.27;;
49910;SDS011;35803;53.096;5.844;2024-01-11T01:04:05;32.87;;;12.63;;
49910;SDS011;35803;53.096;5.844;2024-01-11T01:06:51;31.63;;;12.77;;
49910;SDS011;35803;53.096;5.844;2024-01-11T01:09:37;32.47;;;11.83;;
49910;SDS011;35803;53.096;5.844;2024-01-11T01:12:22;30.93;;;13.17;;
49910;SDS011;35803;53.096;5.844;2024-01-11T01:15:10;33.93;;;12.57;;
49910;SDS011;35803;53.096;5.844;2024-01-11T01:17:56;36.37;;;13.67;;
49910;SDS011;35803;53.096;5.844;2024-01-11T01:20:42;36.83;;;13.90;;
49910;SDS011;35803;53.096;5.844;2024-01-11T01:23:30;35.67;;;13.63;;
49910;SDS011;35803;53.096;5.844;2024-01-11T01:26:16;33.53;;;13.50;;
49910;SDS011;35803;53.096;5.844;2024-01-11T01:29:01;31.33;;;12.97;;
49910;SDS011;35803;53.096;5.844;2024-01-11T01:31:47;33.30;;;13.07;;
49910;SDS011;35803;53.096;5.844;2024-01-11T01:34:33;32.93;;;12.83;;
49910;SDS011;35803;53.096;5.844;2024-01-11T01:37:19;32.67;;;13.00;;
49910;SDS011;35803;53.096;5.844;2024-01-11T01:40:05;34.30;;;12.77;;
49910;SDS011;35803;53.096;5.844;2024-01-11T01:42:57;28.30;;;11.97;;
49910;SDS011;35803;53.096;5.844;2024-01-11T01:45:43;34.57;;;13.47;;
49910;SDS011;35803;53.096;5.844;2024-01-11T01:48:29;29.50;;;12.97;;
49910;SDS011;35803;53.096;5.844;2024-01-11T01:51:15;32.93;;;12.40;;
49910;SDS011;35803;53.096;5.844;2024-01-11T01:54:01;42.93;;;14.63;;
49910;SDS011;35803;53.096;5.844;2024-01-11T01:56:48;36.33;;;13.17;;
49910;SDS011;35803;53.096;5.844;2024-01-11T01:59:34;33.97;;;13.57;;
49910;SDS011;35803;53.096;5.844;2024-01-11T02:02:22;37.70;;;14.27;;
49910;SDS011;35803;53.096;5.844;2024-01-11T02:05:08;35.63;;;13.53;;
49910;SDS011;35803;53.096;5.844;2024-01-11T02:07:55;35.10;;;14.10;;
49910;SDS011;35803;53.096;5.844;2024-01-11T02:10:41;36.00;;;13.87;;
49910;SDS011;35803;53.096;5.844;2024-01-11T02:13:27;36.47;;;13.33;;
49910;SDS011;35803;53.096;5.844;2024-01-11T02:16:13;40.40;;;14.57;;
49910;SDS011;35803;53.096;5.844;2024-01-11T02:19:00;32.77;;;13.57;;
49910;SDS011;35803;53.096;5.844;2024-01-11T02:21:46;34.33;;;14.67;;
49910;SDS011;35803;53.096;5.844;2024-01-11T02:24:32;33.13;;;13.73;;
49910;SDS011;35803;53.096;5.844;2024-01-11T02:27:18;42.40;;;14.57;;
49910;SDS011;35803;53.096;5.844;2024-01-11T02:30:03;36.50;;;13.77;;
49910;SDS011;35803;53.096;5.844;2024-01-11T02:32:50;35.73;;;13.80;;
49910;SDS011;35803;53.096;5.844;2024-01-11T02:35:36;36.27;;;14.07;;
49910;SDS011;35803;53.096;5.844;2024-01-11T02:38:24;40.57;;;14.57;;
49910;SDS011;35803;53.096;5.844;2024-01-11T02:41:11;39.20;;;14.00;;
49910;SDS011;35803;53.096;5.844;2024-01-11T02:43:57;33.60;;;13.60;;
49910;SDS011;35803;53.096;5.844;2024-01-11T02:46:43;35.43;;;12.83;;
49910;SDS011;35803;53.096;5.844;2024-01-11T02:49:29;33.77;;;13.60;;
49910;SDS011;35803;53.096;5.844;2024-01-11T02:52:15;36.70;;;13.93;;
49910;SDS011;35803;53.096;5.844;2024-01-11T02:55:00;36.63;;;13.80;;
49910;SDS011;35803;53.096;5.844;2024-01-11T02:57:46;39.77;;;15.07;;
49910;SDS011;35803;53.096;5.844;2024-01-11T03:00:32;32.37;;;12.53;;
49910;SDS011;35803;53.096;5.844;2024-01-11T03:03:18;38.57;;;13.97;;
49910;SDS011;35803;53.096;5.844;2024-01-11T03:06:04;38.13;;;13.70;;
49910;SDS011;35803;53.096;5.844;2024-01-11T03:08:52;43.00;;;15.13;;
49910;SDS011;35803;53.096;5.844;2024-01-11T03:11:38;33.27;;;13.73;;
49910;SDS011;35803;53.096;5.844;2024-01-11T03:14:24;36.60;;;13.33;;
49910;SDS011;35803;53.096;5.844;2024-01-11T03:17:10;34.30;;;13.67;;
49910;SDS011;35803;53.096;5.844;2024-01-11T03:19:56;41.80;;;14.30;;
49910;SDS011;35803;53.096;5.844;2024-01-11T03:22:45;37.37;;;14.90;;
49910;SDS011;35803;53.096;5.844;2024-01-11T03:25:32;38.47;;;13.83;;
49910;SDS011;35803;53.096;5.844;2024-01-11T03:28:18;35.90;;;14.63;;
49910;SDS011;35803;53.096;5.844;2024-01-11T03:31:04;38.63;;;13.57;;
49910;SDS011;35803;53.096;5.844;2024-01-11T03:33:50;39.27;;;14.90;;
49910;SDS011;35803;53.096;5.844;2024-01-11T03:36:36;36.67;;;14.37;;
49910;SDS011;35803;53.096;5.844;2024-01-11T03:39:21;38.20;;;15.33;;
49910;SDS011;35803;53.096;5.844;2024-01-11T03:42:07;37.37;;;13.40;;
49910;SDS011;35803;53.096;5.844;2024-01-11T03:44:53;36.67;;;14.23;;
49910;SDS011;35803;53.096;5.844;2024-01-11T03:47:39;33.43;;;13.13;;
49910;SDS011;35803;53.096;5.844;2024-01-11T03:50:24;41.23;;;14.90;;
49910;SDS011;35803;53.096;5.844;2024-01-11T03:53:10;38.97;;;14.47;;
49910;SDS011;35803;53.096;5.844;2024-01-11T03:55:56;32.50;;;14.40;;
49910;SDS011;35803;53.096;5.844;2024-01-11T03:58:42;36.87;;;13.27;;
49910;SDS011;35803;53.096;5.844;2024-01-11T04:01:32;43.23;;;14.77;;
49910;SDS011;35803;53.096;5.844;2024-01-11T04:04:18;36.47;;;14.03;;
49910;SDS011;35803;53.096;5.844;2024-01-11T04:07:04;39.47;;;13.87;;
49910;SDS011;35803;53.096;5.844;2024-01-11T04:09:50;37.87;;;13.43;;
49910;SDS011;35803;53.096;5.844;2024-01-11T04:12:35;42.23;;;13.97;;
49910;SDS011;35803;53.096;5.844;2024-01-11T04:15:25;39.60;;;13.37;;
49910;SDS011;35803;53.096;5.844;2024-01-11T04:18:11;44.53;;;15.17;;
49910;SDS011;35803;53.096;5.844;2024-01-11T04:20:57;43.87;;;14.80;;
49910;SDS011;35803;53.096;5.844;2024-01-11T04:23:42;36.43;;;13.37;;
49910;SDS011;35803;53.096;5.844;2024-01-11T04:26:28;42.97;;;14.90;;
49910;SDS011;35803;53.096;5.844;2024-01-11T04:29:14;37.73;;;14.07;;
49910;SDS011;35803;53.096;5.844;2024-01-11T04:31:59;36.93;;;14.17;;
49910;SDS011;35803;53.096;5.844;2024-01-11T04:34:46;40.50;;;13.80;;
49910;SDS011;35803;53.096;5.844;2024-01-11T04:37:32;38.47;;;14.20;;
49910;SDS011;35803;53.096;5.844;2024-01-11T04:40:20;38.50;;;13.70;;
49910;SDS011;35803;53.096;5.844;2024-01-11T04:43:06;34.47;;;12.83;;
49910;SDS011;35803;53.096;5.844;2024-01-11T04:45:54;34.70;;;13.33;;
49910;SDS011;35803;53.096;5.844;2024-01-11T04:48:40;44.27;;;15.77;;
49910;SDS011;35803;53.096;5.844;2024-01-11T04:51:26;40.30;;;14.87;;
49910;SDS011;35803;53.096;5.844;2024-01-11T04:54:11;38.03;;;14.63;;
49910;SDS011;35803;53.096;5.844;2024-01-11T04:56:57;44.13;;;15.07;;
49910;SDS011;35803;53.096;5.844;2024-01-11T04:59:43;37.63;;;14.33;;
49910;SDS011;35803;53.096;5.844;2024-01-11T05:02:29;37.73;;;14.63;;
49910;SDS011;35803;53.096;5.844;2024-01-11T05:05:15;32.70;;;12.83;;
49910;SDS011;35803;53.096;5.844;2024-01-11T05:08:00;38.40;;;13.03;;
49910;SDS011;35803;53.096;5.844;2024-01-11T05:10:46;32.10;;;13.30;;
49910;SDS011;35803;53.096;5.844;2024-01-11T05:13:32;39.90;;;14.30;;
49910;SDS011;35803;53.096;5.844;2024-01-11T05:19:05;40.90;;;14.30;;
49910;SDS011;35803;53.096;5.844;2024-01-11T05:21:50;39.33;;;14.43;;
49910;SDS011;35803;53.096;5.844;2024-01-11T05:24:36;38.67;;;14.80;;
49910;SDS011;35803;53.096;5.844;2024-01-11T05:27:22;46.47;;;16.23;;
49910;SDS011;35803;53.096;5.844;2024-01-11T05:30:08;39.40;;;14.97;;
49910;SDS011;35803;53.096;5.844;2024-01-11T05:32:55;37.40;;;13.97;;
49910;SDS011;35803;53.096;5.844;2024-01-11T05:35:41;39.47;;;14.43;;
49910;SDS011;35803;53.096;5.844;2024-01-11T05:38:26;48.90;;;16.20;;
49910;SDS011;35803;53.096;5.844;2024-01-11T05:41:12;42.37;;;15.17;;
49910;SDS011;35803;53.096;5.844;2024-01-11T05:43:58;42.40;;;14.73;;
49910;SDS011;35803;53.096;5.844;2024-01-11T05:46:43;44.57;;;16.30;;
49910;SDS011;35803;53.096;5.844;2024-01-11T05:49:29;49.53;;;16.60;;
49910;SDS011;35803;53.096;5.844;2024-01-11T05:52:15;46.37;;;17.03;;
49910;SDS011;35803;53.096;5.844;2024-01-11T05:55:01;45.27;;;16.10;;
49910;SDS011;35803;53.096;5.844;2024-01-11T05:57:46;47.83;;;16.43;;
49910;SDS011;35803;53.096;5.844;2024-01-11T06:00:32;46.20;;;17.30;;
49910;SDS011;35803;53.096;5.844;2024-01-11T06:03:18;47.07;;;16.30;;
49910;SDS011;35803;53.096;5.844;2024-01-11T06:06:04;42.80;;;16.23;;
49910;SDS011;35803;53.096;5.844;2024-01-11T06:08:50;41.93;;;16.70;;
49910;SDS011;35803;53.096;5.844;2024-01-11T06:11:36;48.47;;;17.90;;
49910;SDS011;35803;53.096;5.844;2024-01-11T06:14:22;47.63;;;18.17;;
49910;SDS011;35803;53.096;5.844;2024-01-11T06:17:08;45.53;;;17.47;;
49910;SDS011;35803;53.096;5.844;2024-01-11T06:19:56;42.63;;;16.03;;
49910;SDS011;35803;53.096;5.844;2024-01-11T06:22:42;41.40;;;16.73;;
49910;SDS011;35803;53.096;5.844;2024-01-11T06:25:28;41.60;;;16.07;;
49910;SDS011;35803;53.096;5.844;2024-01-11T06:28:13;48.47;;;17.60;;
49910;SDS011;35803;53.096;5.844;2024-01-11T06:30:59;42.33;;;16.80;;
49910;SDS011;35803;53.096;5.844;2024-01-11T06:33:45;38.63;;;15.10;;
49910;SDS011;35803;53.096;5.844;2024-01-11T06:36:30;47.03;;;16.57;;
49910;SDS011;35803;53.096;5.844;2024-01-11T06:39:16;47.40;;;17.03;;
49910;SDS011;35803;53.096;5.844;2024-01-11T06:42:02;43.00;;;15.73;;
49910;SDS011;35803;53.096;5.844;2024-01-11T06:44:48;48.03;;;18.60;;
49910;SDS011;35803;53.096;5.844;2024-01-11T06:47:34;49.13;;;17.67;;
49910;SDS011;35803;53.096;5.844;2024-01-11T06:50:19;41.63;;;17.07;;
49910;SDS011;35803;53.096;5.844;2024-01-11T06:53:05;45.88;;;18.58;;
49910;SDS011;35803;53.096;5.844;2024-01-11T06:55:51;43.70;;;16.87;;
49910;SDS011;35803;53.096;5.844;2024-01-11T06:58:38;46.50;;;16.48;;
49910;SDS011;35803;53.096;5.844;2024-01-11T07:01:23;42.67;;;16.75;;
49910;SDS011;35803;53.096;5.844;2024-01-11T07:04:09;42.93;;;16.07;;
49910;SDS011;35803;53.096;5.844;2024-01-11T07:06:55;45.20;;;17.10;;
49910;SDS011;35803;53.096;5.844;2024-01-11T07:09:41;49.57;;;17.87;;
49910;SDS011;35803;53.096;5.844;2024-01-11T07:12:26;43.30;;;16.30;;
49910;SDS011;35803;53.096;5.844;2024-01-11T07:15:12;46.25;;;18.10;;
49910;SDS011;35803;53.096;5.844;2024-01-11T07:17:58;44.00;;;15.97;;
49910;SDS011;35803;53.096;5.844;2024-01-11T07:20:44;46.67;;;16.17;;
49910;SDS011;35803;53.096;5.844;2024-01-11T07:23:30;45.40;;;17.83;;
49910;SDS011;35803;53.096;5.844;2024-01-11T07:26:15;48.83;;;17.50;;
49910;SDS011;35803;53.096;5.844;2024-01-11T07:29:01;46.45;;;16.83;;
49910;SDS011;35803;53.096;5.844;2024-01-11T07:31:47;45.35;;;17.80;;
49910;SDS011;35803;53.096;5.844;2024-01-11T07:34:33;49.20;;;17.27;;
49910;SDS011;35803;53.096;5.844;2024-01-11T07:37:19;47.28;;;17.50;;
49910;SDS011;35803;53.096;5.844;2024-01-11T07:40:06;49.23;;;17.77;;
49910;SDS011;35803;53.096;5.844;2024-01-11T07:42:58;43.38;;;16.63;;
49910;SDS011;35803;53.096;5.844;2024-01-11T07:45:44;42.10;;;17.67;;
49910;SDS011;35803;53.096;5.844;2024-01-11T07:48:30;44.90;;;17.45;;
49910;SDS011;35803;53.096;5.844;2024-01-11T07:51:16;42.67;;;17.65;;
49910;SDS011;35803;53.096;5.844;2024-01-11T07:54:01;49.63;;;17.23;;
49910;SDS011;35803;53.096;5.844;2024-01-11T07:56:48;41.28;;;16.25;;
49910;SDS011;35803;53.096;5.844;2024-01-11T07:59:33;46.50;;;16.88;;
49910;SDS011;35803;53.096;5.844;2024-01-11T08:02:23;48.28;;;17.13;;
49910;SDS011;35803;53.096;5.844;2024-01-11T08:05:09;41.97;;;16.75;;
49910;SDS011;35803;53.096;5.844;2024-01-11T08:07:55;44.03;;;16.98;;
49910;SDS011;35803;53.096;5.844;2024-01-11T08:10:40;45.40;;;17.60;;
49910;SDS011;35803;53.096;5.844;2024-01-11T08:13:26;46.42;;;16.98;;
49910;SDS011;35803;53.096;5.844;2024-01-11T08:16:16;37.90;;;16.00;;
49910;SDS011;35803;53.096;5.844;2024-01-11T08:19:03;48.63;;;17.85;;
49910;SDS011;35803;53.096;5.844;2024-01-11T08:21:51;39.60;;;16.33;;
49910;SDS011;35803;53.096;5.844;2024-01-11T08:24:37;41.65;;;16.08;;
49910;SDS011;35803;53.096;5.844;2024-01-11T08:27:23;43.90;;;17.73;;
49910;SDS011;35803;53.096;5.844;2024-01-11T08:30:09;39.40;;;17.27;;
49910;SDS011;35803;53.096;5.844;2024-01-11T08:32:55;42.28;;;16.75;;
49910;SDS011;35803;53.096;5.844;2024-01-11T08:35:41;46.30;;;17.95;;
49910;SDS011;35803;53.096;5.844;2024-01-11T08:38:27;42.45;;;17.20;;
49910;SDS011;35803;53.096;5.844;2024-01-11T08:41:14;41.92;;;16.77;;
49910;SDS011;35803;53.096;5.844;2024-01-11T08:44:00;40.70;;;16.30;;
49910;SDS011;35803;53.096;5.844;2024-01-11T08:46:51;42.53;;;16.75;;
49910;SDS011;35803;53.096;5.844;2024-01-11T08:49:37;44.88;;;16.58;;
49910;SDS011;35803;53.096;5.844;2024-01-11T08:52:24;39.58;;;16.90;;
49910;SDS011;35803;53.096;5.844;2024-01-11T08:55:10;42.33;;;17.50;;
49910;SDS011;35803;53.096;5.844;2024-01-11T08:57:58;40.67;;;16.45;;
49910;SDS011;35803;53.096;5.844;2024-01-11T09:00:43;41.40;;;15.52;;
49910;SDS011;35803;53.096;5.844;2024-01-11T09:03:29;44.33;;;17.48;;
49910;SDS011;35803;53.096;5.844;2024-01-11T09:06:15;41.67;;;16.65;;
49910;SDS011;35803;53.096;5.844;2024-01-11T09:09:01;36.72;;;16.05;;
49910;SDS011;35803;53.096;5.844;2024-01-11T09:11:46;36.33;;;14.90;;
49910;SDS011;35803;53.096;5.844;2024-01-11T09:14:32;40.55;;;15.93;;
49910;SDS011;35803;53.096;5.844;2024-01-11T09:17:18;32.95;;;14.70;;
49910;SDS011;35803;53.096;5.844;2024-01-11T09:20:04;37.13;;;15.73;;
49910;SDS011;35803;53.096;5.844;2024-01-11T09:22:50;35.03;;;15.27;;
49910;SDS011;35803;53.096;5.844;2024-01-11T09:25:36;34.65;;;14.95;;
49910;SDS011;35803;53.096;5.844;2024-01-11T09:28:22;36.30;;;14.65;;
49910;SDS011;35803;53.096;5.844;2024-01-11T09:31:07;35.83;;;15.25;;
49910;SDS011;35803;53.096;5.844;2024-01-11T09:33:53;31.80;;;13.60;;
49910;SDS011;35803;53.096;5.844;2024-01-11T09:36:39;40.58;;;15.07;;
49910;SDS011;35803;53.096;5.844;2024-01-11T09:39:25;41.22;;;17.50;;
49910;SDS011;35803;53.096;5.844;2024-01-11T09:42:11;34.72;;;14.65;;
49910;SDS011;35803;53.096;5.844;2024-01-11T09:44:58;34.13;;;14.30;;
49910;SDS011;35803;53.096;5.844;2024-01-11T09:47:44;32.30;;;14.60;;
49910;SDS011;35803;53.096;5.844;2024-01-11T09:50:33;34.72;;;14.02;;
49910;SDS011;35803;53.096;5.844;2024-01-11T09:53:19;34.58;;;14.38;;
49910;SDS011;35803;53.096;5.844;2024-01-11T09:56:09;33.65;;;14.52;;
49910;SDS011;35803;53.096;5.844;2024-01-11T09:58:55;29.20;;;12.48;;
49910;SDS011;35803;53.096;5.844;2024-01-11T10:01:41;31.50;;;14.23;;
49910;SDS011;35803;53.096;5.844;2024-01-11T10:04:27;35.55;;;14.65;;
49910;SDS011;35803;53.096;5.844;2024-01-11T10:07:14;32.70;;;13.98;;
49910;SDS011;35803;53.096;5.844;2024-01-11T10:10:04;31.77;;;13.15;;
49910;SDS011;35803;53.096;5.844;2024-01-11T10:12:50;41.38;;;16.52;;
49910;SDS011;35803;53.096;5.844;2024-01-11T10:15:36;31.45;;;13.93;;
49910;SDS011;35803;53.096;5.844;2024-01-11T10:18:22;33.22;;;14.60;;
49910;SDS011;35803;53.096;5.844;2024-01-11T10:21:08;31.00;;;13.38;;
49910;SDS011;35803;53.096;5.844;2024-01-11T10:23:55;36.33;;;15.82;;
49910;SDS011;35803;53.096;5.844;2024-01-11T10:26:43;32.15;;;14.10;;
49910;SDS011;35803;53.096;5.844;2024-01-11T10:29:32;35.00;;;13.77;;
49910;SDS011;35803;53.096;5.844;2024-01-11T10:32:18;32.97;;;13.32;;
49910;SDS011;35803;53.096;5.844;2024-01-11T10:35:04;29.42;;;12.63;;
49910;SDS011;35803;53.096;5.844;2024-01-11T10:37:50;27.13;;;12.32;;
49910;SDS011;35803;53.096;5.844;2024-01-11T10:40:39;32.88;;;12.88;;
49910;SDS011;35803;53.096;5.844;2024-01-11T10:43:26;27.55;;;13.32;;
49910;SDS011;35803;53.096;5.844;2024-01-11T10:46:13;32.08;;;13.98;;
49910;SDS011;35803;53.096;5.844;2024-01-11T10:48:59;32.65;;;15.75;;
49910;SDS011;35803;53.096;5.844;2024-01-11T10:51:53;34.05;;;15.23;;
49910;SDS011;35803;53.096;5.844;2024-01-11T10:54:44;29.63;;;13.23;;
49910;SDS011;35803;53.096;5.844;2024-01-11T10:57:30;30.67;;;13.48;;
49910;SDS011;35803;53.096;5.844;2024-01-11T11:00:18;26.98;;;12.55;;
49910;SDS011;35803;53.096;5.844;2024-01-11T11:03:05;32.50;;;13.23;;
49910;SDS011;35803;53.096;5.844;2024-01-11T11:05:52;28.50;;;13.60;;
49910;SDS011;35803;53.096;5.844;2024-01-11T11:08:39;34.22;;;15.27;;
49910;SDS011;35803;53.096;5.844;2024-01-11T11:11:25;30.63;;;13.10;;
49910;SDS011;35803;53.096;5.844;2024-01-11T11:14:11;34.85;;;14.20;;
49910;SDS011;35803;53.096;5.844;2024-01-11T11:17:00;32.05;;;13.80;;
49910;SDS011;35803;53.096;5.844;2024-01-11T11:19:49;24.95;;;12.52;;
49910;SDS011;35803;53.096;5.844;2024-01-11T11:22:36;30.17;;;12.10;;
49910;SDS011;35803;53.096;5.844;2024-01-11T11:25:25;28.85;;;13.05;;
49910;SDS011;35803;53.096;5.844;2024-01-11T11:28:11;31.13;;;13.30;;
49910;SDS011;35803;53.096;5.844;2024-01-11T11:30:58;27.70;;;12.55;;
49910;SDS011;35803;53.096;5.844;2024-01-11T11:33:45;29.13;;;13.10;;
49910;SDS011;35803;53.096;5.844;2024-01-11T11:36:34;27.05;;;12.13;;
49910;SDS011;35803;53.096;5.844;2024-01-11T11:39:20;29.23;;;13.10;;
49910;SDS011;35803;53.096;5.844;2024-01-11T11:42:06;24.33;;;11.07;;
49910;SDS011;35803;53.096;5.844;2024-01-11T11:44:52;25.55;;;11.65;;
49910;SDS011;35803;53.096;5.844;2024-01-11T11:47:38;27.00;;;11.75;;
49910;SDS011;35803;53.096;5.844;2024-01-11T11:50:24;22.48;;;10.48;;
49910;SDS011;35803;53.096;5.844;2024-01-11T11:53:10;20.10;;;10.20;;
49910;SDS011;35803;53.096;5.844;2024-01-11T11:55:56;21.65;;;10.38;;
49910;SDS011;35803;53.096;5.844;2024-01-11T11:58:42;20.73;;;10.48;;
49910;SDS011;35803;53.096;5.844;2024-01-11T12:01:29;28.40;;;11.40;;
49910;SDS011;35803;53.096;5.844;2024-01-11T12:04:20;24.10;;;10.57;;
49910;SDS011;35803;53.096;5.844;2024-01-11T12:07:06;19.73;;;9.55;;
49910;SDS011;35803;53.096;5.844;2024-01-11T12:09:53;16.50;;;8.93;;
49910;SDS011;35803;53.096;5.844;2024-01-11T12:12:38;15.95;;;8.13;;
49910;SDS011;35803;53.096;5.844;2024-01-11T12:15:26;18.80;;;8.93;;
49910;SDS011;35803;53.096;5.844;2024-01-11T12:18:13;20.83;;;9.00;;
49910;SDS011;35803;53.096;5.844;2024-01-11T12:20:59;18.38;;;9.35;;
49910;SDS011;35803;53.096;5.844;2024-01-11T12:23:47;22.10;;;9.30;;
49910;SDS011;35803;53.096;5.844;2024-01-11T12:26:34;17.77;;;9.15;;
49910;SDS011;35803;53.096;5.844;2024-01-11T12:29:20;21.98;;;9.65;;
49910;SDS011;35803;53.096;5.844;2024-01-11T12:32:06;22.25;;;10.10;;
49910;SDS011;35803;53.096;5.844;2024-01-11T12:34:56;19.55;;;8.57;;
49910;SDS011;35803;53.096;5.844;2024-01-11T12:37:55;20.40;;;9.10;;
49910;SDS011;35803;53.096;5.844;2024-01-11T12:40:45;19.35;;;8.05;;
49910;SDS011;35803;53.096;5.844;2024-01-11T12:43:31;22.48;;;8.68;;
49910;SDS011;35803;53.096;5.844;2024-01-11T12:46:17;17.83;;;9.05;;
49910;SDS011;35803;53.096;5.844;2024-01-11T12:49:02;19.00;;;8.82;;
49910;SDS011;35803;53.096;5.844;2024-01-11T12:51:49;19.45;;;8.25;;
49910;SDS011;35803;53.096;5.844;2024-01-11T12:54:35;18.10;;;8.45;;
49910;SDS011;35803;53.096;5.844;2024-01-11T12:57:22;18.35;;;8.50;;
49910;SDS011;35803;53.096;5.844;2024-01-11T13:00:11;16.58;;;8.18;;
49910;SDS011;35803;53.096;5.844;2024-01-11T13:02:58;17.75;;;8.90;;
49910;SDS011;35803;53.096;5.844;2024-01-11T13:05:44;20.40;;;9.38;;
49910;SDS011;35803;53.096;5.844;2024-01-11T13:08:31;19.08;;;8.32;;
49910;SDS011;35803;53.096;5.844;2024-01-11T13:11:17;19.17;;;8.30;;
49910;SDS011;35803;53.096;5.844;2024-01-11T13:14:03;19.58;;;8.07;;
49910;SDS011;35803;53.096;5.844;2024-01-11T13:16:51;18.40;;;8.30;;
49910;SDS011;35803;53.096;5.844;2024-01-11T13:19:37;18.25;;;7.13;;
49910;SDS011;35803;53.096;5.844;2024-01-11T13:22:24;23.08;;;8.27;;
49910;SDS011;35803;53.096;5.844;2024-01-11T13:25:10;19.17;;;8.48;;
49910;SDS011;35803;53.096;5.844;2024-01-11T13:27:56;17.95;;;7.95;;
49910;SDS011;35803;53.096;5.844;2024-01-11T13:30:42;17.90;;;7.95;;
49910;SDS011;35803;53.096;5.844;2024-01-11T13:33:28;17.60;;;7.72;;
49910;SDS011;35803;53.096;5.844;2024-01-11T13:36:14;16.13;;;8.25;;
49910;SDS011;35803;53.096;5.844;2024-01-11T13:39:00;19.45;;;7.57;;
49910;SDS011;35803;53.096;5.844;2024-01-11T13:41:46;22.67;;;8.10;;
49910;SDS011;35803;53.096;5.844;2024-01-11T13:44:32;18.45;;;7.75;;
49910;SDS011;35803;53.096;5.844;2024-01-11T13:47:18;19.83;;;7.82;;
49910;SDS011;35803;53.096;5.844;2024-01-11T13:50:04;20.13;;;8.32;;
49910;SDS011;35803;53.096;5.844;2024-01-11T13:52:50;18.38;;;8.05;;
49910;SDS011;35803;53.096;5.844;2024-01-11T13:55:36;33.83;;;10.75;;
49910;SDS011;35803;53.096;5.844;2024-01-11T13:58:25;20.15;;;8.63;;
49910;SDS011;35803;53.096;5.844;2024-01-11T14:01:10;20.73;;;8.07;;
49910;SDS011;35803;53.096;5.844;2024-01-11T14:03:57;19.15;;;7.53;;
49910;SDS011;35803;53.096;5.844;2024-01-11T14:06:43;18.88;;;8.13;;
49910;SDS011;35803;53.096;5.844;2024-01-11T14:09:29;18.42;;;7.35;;
49910;SDS011;35803;53.096;5.844;2024-01-11T14:12:15;17.13;;;6.70;;
49910;SDS011;35803;53.096;5.844;2024-01-11T14:15:02;16.05;;;6.75;;
49910;SDS011;35803;53.096;5.844;2024-01-11T14:17:49;22.10;;;6.53;;
49910;SDS011;35803;53.096;5.844;2024-01-11T14:20:35;22.25;;;7.18;;
49910;SDS011;35803;53.096;5.844;2024-01-11T14:23:20;18.08;;;6.18;;
49910;SDS011;35803;53.096;5.844;2024-01-11T14:26:06;19.35;;;6.10;;
49910;SDS011;35803;53.096;5.844;2024-01-11T14:28:52;24.40;;;6.22;;
49910;SDS011;35803;53.096;5.844;2024-01-11T14:31:39;22.23;;;6.97;;
49910;SDS011;35803;53.096;5.844;2024-01-11T14:34:25;24.13;;;6.95;;
49910;SDS011;35803;53.096;5.844;2024-01-11T14:37:11;15.95;;;6.85;;
49910;SDS011;35803;53.096;5.844;2024-01-11T14:39:58;18.45;;;6.45;;
49910;SDS011;35803;53.096;5.844;2024-01-11T14:42:44;16.83;;;5.50;;
49910;SDS011;35803;53.096;5.844;2024-01-11T14:45:30;16.92;;;6.13;;
49910;SDS011;35803;53.096;5.844;2024-01-11T14:48:16;21.08;;;6.35;;
49910;SDS011;35803;53.096;5.844;2024-01-11T14:51:02;22.25;;;5.90;;
49910;SDS011;35803;53.096;5.844;2024-01-11T14:53:50;15.05;;;5.10;;
49910;SDS011;35803;53.096;5.844;2024-01-11T14:56:36;12.77;;;4.68;;
49910;SDS011;35803;53.096;5.844;2024-01-11T14:59:22;10.35;;;3.53;;
49910;SDS011;35803;53.096;5.844;2024-01-11T15:02:08;18.80;;;4.10;;
49910;SDS011;35803;53.096;5.844;2024-01-11T15:04:54;18.52;;;3.63;;
49910;SDS011;35803;53.096;5.844;2024-01-11T15:07:40;11.38;;;2.70;;
49910;SDS011;35803;53.096;5.844;2024-01-11T15:10:26;17.98;;;4.25;;
49910;SDS011;35803;53.096;5.844;2024-01-11T15:13:12;14.18;;;3.63;;
49910;SDS011;35803;53.096;5.844;2024-01-11T15:15:58;17.85;;;6.50;;
49910;SDS011;35803;53.096;5.844;2024-01-11T15:18:43;28.27;;;8.75;;
49910;SDS011;35803;53.096;5.844;2024-01-11T15:21:31;26.85;;;9.55;;
49910;SDS011;35803;53.096;5.844;2024-01-11T15:24:19;20.90;;;6.95;;
49910;SDS011;35803;53.096;5.844;2024-01-11T15:27:05;16.02;;;5.75;;
49910;SDS011;35803;53.096;5.844;2024-01-11T15:29:51;11.07;;;4.05;;
49910;SDS011;35803;53.096;5.844;2024-01-11T15:32:36;10.63;;;2.45;;
49910;SDS011;35803;53.096;5.844;2024-01-11T15:35:22;8.50;;;2.83;;
49910;SDS011;35803;53.096;5.844;2024-01-11T15:38:08;9.27;;;2.28;;
49910;SDS011;35803;53.096;5.844;2024-01-11T15:40:54;13.38;;;3.00;;
49910;SDS011;35803;53.096;5.844;2024-01-11T15:43:40;9.02;;;2.20;;
49910;SDS011;35803;53.096;5.844;2024-01-11T15:46:28;8.70;;;2.45;;
49910;SDS011;35803;53.096;5.844;2024-01-11T15:49:14;7.47;;;2.60;;
49910;SDS011;35803;53.096;5.844;2024-01-11T15:51:59;6.85;;;2.10;;
49910;SDS011;35803;53.096;5.844;2024-01-11T15:54:46;8.13;;;2.33;;
49910;SDS011;35803;53.096;5.844;2024-01-11T15:57:32;11.98;;;2.33;;
49910;SDS011;35803;53.096;5.844;2024-01-11T16:00:17;9.65;;;2.15;;
49910;SDS011;35803;53.096;5.844;2024-01-11T16:03:03;8.27;;;2.30;;
49910;SDS011;35803;53.096;5.844;2024-01-11T16:05:51;14.70;;;2.75;;
49910;SDS011;35803;53.096;5.844;2024-01-11T16:08:37;5.13;;;2.08;;
49910;SDS011;35803;53.096;5.844;2024-01-11T16:11:23;9.27;;;2.45;;
49910;SDS011;35803;53.096;5.844;2024-01-11T16:14:10;13.25;;;2.35;;
49910;SDS011;35803;53.096;5.844;2024-01-11T16:16:56;7.38;;;2.20;;
49910;SDS011;35803;53.096;5.844;2024-01-11T16:19:41;8.02;;;2.60;;